sensor_id;sensor_type;location;lat;lon;timestamp;P1;durP1;ratioP1;P2;durP2;ratioP2
50066;SDS011;35952;52.524;13.340;2022-08-19T00:00:08;20.00;;;18.20;;
50066;SDS011;35952;52.524;13.340;2022-08-19T00:02:35;18.20;;;16.50;;
50066;SDS011;35952;52.524;13.340;2022-08-19T00:05:01;18.60;;;17.17;;
50066;SDS011;35952;52.524;13.340;2022-08-19T00:07:28;20.53;;;18.73;;
50066;SDS011;35952;52.524;13.340;2022-08-19T00:09:53;19.27;;;17.07;;
50066;SDS011;35952;52.524;13.340;2022-08-19T00:12:19;19.33;;;17.63;;
50066;SDS011;35952;52.524;13.340;2022-08-19T00:14:45;20.40;;;18.50;;
50066;SDS011;35952;52.524;13.340;2022-08-19T00:17:10;19.83;;;18.17;;
50066;SDS011;35952;52.524;13.340;2022-08-19T00:19:36;19.83;;;17.87;;
50066;SDS011;35952;52.524;13.340;2022-08-19T00:22:03;18.13;;;16.70;;
50066;SDS011;35952;52.524;13.340;2022-08-19T00:24:30;20.63;;;18.63;;
50066;SDS011;35952;52.524;13.340;2022-08-19T00:26:56;20.63;;;18.87;;
50066;SDS011;35952;52.524;13.340;2022-08-19T00:29:22;18.43;;;16.80;;
50066;SDS011;35952;52.524;13.340;2022-08-19T00:31:49;19.43;;;17.57;;
50066;SDS011;35952;52.524;13.340;2022-08-19T00:34:18;18.60;;;17.00;;
50066;SDS011;35952;52.524;13.340;2022-08-19T00:36:44;18.43;;;16.83;;
50066;SDS011;35952;52.524;13.340;2022-08-19T00:39:11;19.20;;;17.57;;
50066;SDS011;35952;52.524;13.340;2022-08-19T00:41:38;18.03;;;16.43;;
50066;SDS011;35952;52.524;13.340;2022-08-19T00:44:06;18.77;;;17.13;;
50066;SDS011;35952;52.524;13.340;2022-08-19T00:46:39;18.53;;;16.90;;
50066;SDS011;35952;52.524;13.340;2022-08-19T00:49:07;19.13;;;17.50;;
50066;SDS011;35952;52.524;13.340;2022-08-19T00:51:39;18.80;;;17.10;;
50066;SDS011;35952;52.524;13.340;2022-08-19T00:54:06;16.67;;;15.27;;
50066;SDS011;35952;52.524;13.340;2022-08-19T00:56:31;18.10;;;16.50;;
50066;SDS011;35952;52.524;13.340;2022-08-19T00:58:58;15.93;;;14.57;;
50066;SDS011;35952;52.524;13.340;2022-08-19T01:01:24;18.37;;;16.60;;
50066;SDS011;35952;52.524;13.340;2022-08-19T01:03:50;18.90;;;17.10;;
50066;SDS011;35952;52.524;13.340;2022-08-19T01:06:16;18.43;;;16.10;;
50066;SDS011;35952;52.524;13.340;2022-08-19T01:08:41;22.00;;;18.20;;
50066;SDS011;35952;52.524;13.340;2022-08-19T01:11:07;20.60;;;18.60;;
50066;SDS011;35952;52.524;13.340;2022-08-19T01:13:33;19.10;;;17.30;;
50066;SDS011;35952;52.524;13.340;2022-08-19T01:16:01;21.47;;;19.37;;
50066;SDS011;35952;52.524;13.340;2022-08-19T01:18:31;21.80;;;19.83;;
50066;SDS011;35952;52.524;13.340;2022-08-19T01:21:04;22.83;;;20.43;;
50066;SDS011;35952;52.524;13.340;2022-08-19T01:23:38;23.00;;;20.70;;
50066;SDS011;35952;52.524;13.340;2022-08-19T01:26:16;22.07;;;20.00;;
50066;SDS011;35952;52.524;13.340;2022-08-19T01:28:44;23.57;;;21.13;;
50066;SDS011;35952;52.524;13.340;2022-08-19T01:31:14;20.73;;;18.73;;
50066;SDS011;35952;52.524;13.340;2022-08-19T01:33:41;21.50;;;19.60;;
50066;SDS011;35952;52.524;13.340;2022-08-19T01:36:08;21.70;;;19.70;;
50066;SDS011;35952;52.524;13.340;2022-08-19T01:38:38;23.10;;;21.10;;
50066;SDS011;35952;52.524;13.340;2022-08-19T01:41:07;24.57;;;22.23;;
50066;SDS011;35952;52.524;13.340;2022-08-19T01:43:33;23.63;;;21.57;;
50066;SDS011;35952;52.524;13.340;2022-08-19T01:45:59;24.50;;;22.20;;
50066;SDS011;35952;52.524;13.340;2022-08-19T01:48:25;25.80;;;23.20;;
50066;SDS011;35952;52.524;13.340;2022-08-19T01:50:51;24.83;;;22.63;;
50066;SDS011;35952;52.524;13.340;2022-08-19T01:53:17;25.00;;;22.40;;
50066;SDS011;35952;52.524;13.340;2022-08-19T01:55:42;23.93;;;21.73;;
50066;SDS011;35952;52.524;13.340;2022-08-19T01:58:16;26.23;;;23.43;;
50066;SDS011;35952;52.524;13.340;2022-08-19T02:00:45;25.20;;;22.67;;
50066;SDS011;35952;52.524;13.340;2022-08-19T02:03:11;25.03;;;22.67;;
50066;SDS011;35952;52.524;13.340;2022-08-19T02:05:37;25.10;;;22.63;;
50066;SDS011;35952;52.524;13.340;2022-08-19T02:08:03;26.10;;;23.60;;
50066;SDS011;35952;52.524;13.340;2022-08-19T02:10:29;24.70;;;22.50;;
50066;SDS011;35952;52.524;13.340;2022-08-19T02:12:55;25.97;;;23.47;;
50066;SDS011;35952;52.524;13.340;2022-08-19T02:15:21;24.80;;;22.50;;
50066;SDS011;35952;52.524;13.340;2022-08-19T02:17:47;25.80;;;23.40;;
50066;SDS011;35952;52.524;13.340;2022-08-19T02:20:12;26.23;;;23.53;;
50066;SDS011;35952;52.524;13.340;2022-08-19T02:22:39;26.40;;;23.80;;
50066;SDS011;35952;52.524;13.340;2022-08-19T02:25:07;27.33;;;24.37;;
50066;SDS011;35952;52.524;13.340;2022-08-19T02:27:34;26.70;;;23.90;;
50066;SDS011;35952;52.524;13.340;2022-08-19T02:30:00;26.30;;;23.80;;
50066;SDS011;35952;52.524;13.340;2022-08-19T02:32:26;26.73;;;24.33;;
50066;SDS011;35952;52.524;13.340;2022-08-19T02:34:52;26.50;;;23.80;;
50066;SDS011;35952;52.524;13.340;2022-08-19T02:37:17;27.47;;;24.73;;
50066;SDS011;35952;52.524;13.340;2022-08-19T02:40:02;27.67;;;25.07;;
50066;SDS011;35952;52.524;13.340;2022-08-19T02:42:28;27.77;;;25.10;;
50066;SDS011;35952;52.524;13.340;2022-08-19T02:44:55;25.00;;;22.40;;
50066;SDS011;35952;52.524;13.340;2022-08-19T02:47:20;25.47;;;22.93;;
50066;SDS011;35952;52.524;13.340;2022-08-19T02:49:46;25.90;;;23.37;;
50066;SDS011;35952;52.524;13.340;2022-08-19T02:52:14;25.43;;;22.90;;
50066;SDS011;35952;52.524;13.340;2022-08-19T02:54:40;26.20;;;23.50;;
50066;SDS011;35952;52.524;13.340;2022-08-19T02:57:05;28.70;;;26.03;;
50066;SDS011;35952;52.524;13.340;2022-08-19T02:59:31;25.43;;;23.20;;
50066;SDS011;35952;52.524;13.340;2022-08-19T03:01:57;24.67;;;22.47;;
50066;SDS011;35952;52.524;13.340;2022-08-19T03:04:23;25.93;;;23.20;;
50066;SDS011;35952;52.524;13.340;2022-08-19T03:06:49;26.27;;;23.67;;
50066;SDS011;35952;52.524;13.340;2022-08-19T03:09:15;25.40;;;23.13;;
50066;SDS011;35952;52.524;13.340;2022-08-19T03:11:41;27.37;;;24.93;;
50066;SDS011;35952;52.524;13.340;2022-08-19T03:14:07;27.10;;;24.23;;
50066;SDS011;35952;52.524;13.340;2022-08-19T03:16:36;26.40;;;23.90;;
50066;SDS011;35952;52.524;13.340;2022-08-19T03:19:06;27.40;;;24.80;;
50066;SDS011;35952;52.524;13.340;2022-08-19T03:21:32;26.80;;;24.10;;
50066;SDS011;35952;52.524;13.340;2022-08-19T03:24:01;25.40;;;23.20;;
50066;SDS011;35952;52.524;13.340;2022-08-19T03:26:29;27.43;;;24.83;;
50066;SDS011;35952;52.524;13.340;2022-08-19T03:28:55;28.10;;;25.37;;
50066;SDS011;35952;52.524;13.340;2022-08-19T03:31:22;25.33;;;22.90;;
50066;SDS011;35952;52.524;13.340;2022-08-19T03:33:50;28.27;;;25.43;;
50066;SDS011;35952;52.524;13.340;2022-08-19T03:36:19;28.73;;;26.00;;
50066;SDS011;35952;52.524;13.340;2022-08-19T03:38:50;30.07;;;27.27;;
50066;SDS011;35952;52.524;13.340;2022-08-19T03:41:20;28.70;;;26.10;;
50066;SDS011;35952;52.524;13.340;2022-08-19T03:43:47;28.97;;;26.03;;
50066;SDS011;35952;52.524;13.340;2022-08-19T03:46:17;25.33;;;22.90;;
50066;SDS011;35952;52.524;13.340;2022-08-19T03:48:45;27.43;;;24.73;;
50066;SDS011;35952;52.524;13.340;2022-08-19T03:51:46;27.63;;;24.93;;
50066;SDS011;35952;52.524;13.340;2022-08-19T03:54:05;26.20;;;23.87;;
50066;SDS011;35952;52.524;13.340;2022-08-19T03:56:33;26.00;;;23.57;;
50066;SDS011;35952;52.524;13.340;2022-08-19T03:59:00;26.87;;;24.53;;
50066;SDS011;35952;52.524;13.340;2022-08-19T04:01:26;25.90;;;23.30;;
50066;SDS011;35952;52.524;13.340;2022-08-19T04:03:53;27.10;;;24.47;;
50066;SDS011;35952;52.524;13.340;2022-08-19T04:06:24;27.93;;;25.33;;
50066;SDS011;35952;52.524;13.340;2022-08-19T04:08:52;26.63;;;24.23;;
50066;SDS011;35952;52.524;13.340;2022-08-19T04:11:20;27.53;;;25.03;;
50066;SDS011;35952;52.524;13.340;2022-08-19T04:13:51;25.60;;;23.40;;
50066;SDS011;35952;52.524;13.340;2022-08-19T04:16:18;26.17;;;23.73;;
50066;SDS011;35952;52.524;13.340;2022-08-19T04:18:45;27.80;;;25.20;;
50066;SDS011;35952;52.524;13.340;2022-08-19T04:21:15;26.70;;;23.80;;
50066;SDS011;35952;52.524;13.340;2022-08-19T04:23:49;27.20;;;24.47;;
50066;SDS011;35952;52.524;13.340;2022-08-19T04:26:15;27.00;;;24.57;;
50066;SDS011;35952;52.524;13.340;2022-08-19T04:28:43;25.60;;;23.30;;
50066;SDS011;35952;52.524;13.340;2022-08-19T04:31:13;27.93;;;25.30;;
50066;SDS011;35952;52.524;13.340;2022-08-19T04:33:41;26.30;;;23.90;;
50066;SDS011;35952;52.524;13.340;2022-08-19T04:36:07;25.03;;;22.80;;
50066;SDS011;35952;52.524;13.340;2022-08-19T04:38:32;28.00;;;25.50;;
50066;SDS011;35952;52.524;13.340;2022-08-19T04:40:58;25.53;;;23.30;;
50066;SDS011;35952;52.524;13.340;2022-08-19T04:43:42;25.23;;;22.63;;
50066;SDS011;35952;52.524;13.340;2022-08-19T04:46:13;25.47;;;23.27;;
50066;SDS011;35952;52.524;13.340;2022-08-19T04:48:39;23.70;;;21.70;;
50066;SDS011;35952;52.524;13.340;2022-08-19T04:51:09;25.83;;;23.63;;
50066;SDS011;35952;52.524;13.340;2022-08-19T04:53:38;24.40;;;22.30;;
50066;SDS011;35952;52.524;13.340;2022-08-19T04:56:15;23.13;;;20.90;;
50066;SDS011;35952;52.524;13.340;2022-08-19T04:58:42;23.10;;;21.00;;
50066;SDS011;35952;52.524;13.340;2022-08-19T05:01:19;24.03;;;21.90;;
50066;SDS011;35952;52.524;13.340;2022-08-19T05:03:47;22.60;;;20.67;;
50066;SDS011;35952;52.524;13.340;2022-08-19T05:06:13;24.73;;;22.53;;
50066;SDS011;35952;52.524;13.340;2022-08-19T05:08:40;24.50;;;22.30;;
50066;SDS011;35952;52.524;13.340;2022-08-19T05:11:09;24.20;;;21.60;;
50066;SDS011;35952;52.524;13.340;2022-08-19T05:13:43;23.30;;;21.17;;
50066;SDS011;35952;52.524;13.340;2022-08-19T05:16:10;22.73;;;20.43;;
50066;SDS011;35952;52.524;13.340;2022-08-19T05:18:36;23.77;;;21.17;;
50066;SDS011;35952;52.524;13.340;2022-08-19T05:21:21;22.27;;;20.03;;
50066;SDS011;35952;52.524;13.340;2022-08-19T05:24:06;23.30;;;21.20;;
50066;SDS011;35952;52.524;13.340;2022-08-19T05:26:35;23.83;;;21.70;;
50066;SDS011;35952;52.524;13.340;2022-08-19T05:29:02;23.07;;;20.53;;
50066;SDS011;35952;52.524;13.340;2022-08-19T05:31:28;19.50;;;17.80;;
50066;SDS011;35952;52.524;13.340;2022-08-19T05:33:55;16.80;;;15.40;;
50066;SDS011;35952;52.524;13.340;2022-08-19T05:36:23;18.40;;;16.43;;
50066;SDS011;35952;52.524;13.340;2022-08-19T05:38:49;17.77;;;16.17;;
50066;SDS011;35952;52.524;13.340;2022-08-19T05:41:15;15.83;;;14.17;;
50066;SDS011;35952;52.524;13.340;2022-08-19T05:43:42;20.40;;;18.50;;
50066;SDS011;35952;52.524;13.340;2022-08-19T05:46:07;18.47;;;16.67;;
50066;SDS011;35952;52.524;13.340;2022-08-19T05:48:33;17.50;;;16.00;;
50066;SDS011;35952;52.524;13.340;2022-08-19T05:51:03;20.07;;;18.33;;
50066;SDS011;35952;52.524;13.340;2022-08-19T05:53:31;17.63;;;16.13;;
50066;SDS011;35952;52.524;13.340;2022-08-19T05:55:57;22.00;;;20.00;;
50066;SDS011;35952;52.524;13.340;2022-08-19T05:58:23;20.20;;;18.40;;
50066;SDS011;35952;52.524;13.340;2022-08-19T06:00:48;18.87;;;16.97;;
50066;SDS011;35952;52.524;13.340;2022-08-19T06:03:14;18.53;;;16.97;;
50066;SDS011;35952;52.524;13.340;2022-08-19T06:05:40;18.90;;;17.30;;
50066;SDS011;35952;52.524;13.340;2022-08-19T06:08:06;21.03;;;19.27;;
50066;SDS011;35952;52.524;13.340;2022-08-19T06:10:32;21.60;;;19.67;;
50066;SDS011;35952;52.524;13.340;2022-08-19T06:12:57;24.93;;;22.77;;
50066;SDS011;35952;52.524;13.340;2022-08-19T06:15:23;23.50;;;21.60;;
50066;SDS011;35952;52.524;13.340;2022-08-19T06:17:50;23.30;;;20.90;;
50066;SDS011;35952;52.524;13.340;2022-08-19T06:20:16;21.70;;;19.77;;
50066;SDS011;35952;52.524;13.340;2022-08-19T06:22:44;21.97;;;20.17;;
50066;SDS011;35952;52.524;13.340;2022-08-19T06:25:11;23.17;;;20.47;;
50066;SDS011;35952;52.524;13.340;2022-08-19T06:27:39;20.90;;;19.00;;
50066;SDS011;35952;52.524;13.340;2022-08-19T06:30:05;23.73;;;21.53;;
50066;SDS011;35952;52.524;13.340;2022-08-19T06:32:31;21.10;;;19.20;;
50066;SDS011;35952;52.524;13.340;2022-08-19T06:34:56;19.93;;;18.37;;
50066;SDS011;35952;52.524;13.340;2022-08-19T06:37:22;23.13;;;20.70;;
50066;SDS011;35952;52.524;13.340;2022-08-19T06:39:48;26.23;;;23.73;;
50066;SDS011;35952;52.524;13.340;2022-08-19T06:42:14;26.80;;;24.17;;
50066;SDS011;35952;52.524;13.340;2022-08-19T06:44:43;25.93;;;23.60;;
50066;SDS011;35952;52.524;13.340;2022-08-19T06:47:13;23.97;;;21.80;;
50066;SDS011;35952;52.524;13.340;2022-08-19T06:49:41;27.37;;;24.80;;
50066;SDS011;35952;52.524;13.340;2022-08-19T06:52:07;25.03;;;22.90;;
50066;SDS011;35952;52.524;13.340;2022-08-19T06:54:33;25.07;;;22.97;;
50066;SDS011;35952;52.524;13.340;2022-08-19T06:56:59;23.63;;;21.53;;
50066;SDS011;35952;52.524;13.340;2022-08-19T06:59:29;24.13;;;22.03;;
50066;SDS011;35952;52.524;13.340;2022-08-19T07:01:57;24.43;;;22.03;;
50066;SDS011;35952;52.524;13.340;2022-08-19T07:04:26;23.83;;;21.47;;
50066;SDS011;35952;52.524;13.340;2022-08-19T07:06:57;25.37;;;23.20;;
50066;SDS011;35952;52.524;13.340;2022-08-19T07:09:24;24.83;;;22.47;;
50066;SDS011;35952;52.524;13.340;2022-08-19T07:11:51;26.23;;;23.90;;
50066;SDS011;35952;52.524;13.340;2022-08-19T07:14:20;25.03;;;22.63;;
50066;SDS011;35952;52.524;13.340;2022-08-19T07:16:49;26.33;;;24.10;;
50066;SDS011;35952;52.524;13.340;2022-08-19T07:19:16;24.77;;;22.40;;
50066;SDS011;35952;52.524;13.340;2022-08-19T07:21:43;24.80;;;22.40;;
50066;SDS011;35952;52.524;13.340;2022-08-19T07:24:08;25.13;;;22.97;;
50066;SDS011;35952;52.524;13.340;2022-08-19T07:26:37;24.53;;;22.30;;
50066;SDS011;35952;52.524;13.340;2022-08-19T07:29:04;24.37;;;22.17;;
50066;SDS011;35952;52.524;13.340;2022-08-19T07:31:30;23.97;;;21.50;;
50066;SDS011;35952;52.524;13.340;2022-08-19T07:34:01;23.20;;;21.13;;
50066;SDS011;35952;52.524;13.340;2022-08-19T07:36:32;24.23;;;22.10;;
50066;SDS011;35952;52.524;13.340;2022-08-19T07:38:59;25.67;;;23.67;;
50066;SDS011;35952;52.524;13.340;2022-08-19T07:41:27;25.73;;;23.53;;
50066;SDS011;35952;52.524;13.340;2022-08-19T07:43:53;25.70;;;23.50;;
50066;SDS011;35952;52.524;13.340;2022-08-19T07:46:20;26.80;;;24.33;;
50066;SDS011;35952;52.524;13.340;2022-08-19T07:48:46;24.27;;;21.97;;
50066;SDS011;35952;52.524;13.340;2022-08-19T07:51:15;26.73;;;24.20;;
50066;SDS011;35952;52.524;13.340;2022-08-19T07:53:43;25.57;;;23.27;;
50066;SDS011;35952;52.524;13.340;2022-08-19T07:56:10;27.47;;;25.07;;
50066;SDS011;35952;52.524;13.340;2022-08-19T07:58:38;27.10;;;24.40;;
50066;SDS011;35952;52.524;13.340;2022-08-19T08:01:05;26.80;;;24.50;;
50066;SDS011;35952;52.524;13.340;2022-08-19T08:03:35;25.77;;;23.40;;
50066;SDS011;35952;52.524;13.340;2022-08-19T08:06:20;27.27;;;24.93;;
50066;SDS011;35952;52.524;13.340;2022-08-19T08:09:04;26.23;;;23.87;;
50066;SDS011;35952;52.524;13.340;2022-08-19T08:11:40;28.63;;;26.10;;
50066;SDS011;35952;52.524;13.340;2022-08-19T08:14:07;27.47;;;25.07;;
50066;SDS011;35952;52.524;13.340;2022-08-19T08:16:35;26.90;;;24.33;;
50066;SDS011;35952;52.524;13.340;2022-08-19T08:19:05;24.63;;;22.47;;
50066;SDS011;35952;52.524;13.340;2022-08-19T08:21:32;25.23;;;22.83;;
50066;SDS011;35952;52.524;13.340;2022-08-19T08:23:58;27.57;;;25.00;;
50066;SDS011;35952;52.524;13.340;2022-08-19T08:26:24;26.80;;;24.40;;
50066;SDS011;35952;52.524;13.340;2022-08-19T08:28:50;27.63;;;25.17;;
50066;SDS011;35952;52.524;13.340;2022-08-19T08:31:17;28.70;;;26.20;;
50066;SDS011;35952;52.524;13.340;2022-08-19T08:33:44;27.63;;;25.33;;
50066;SDS011;35952;52.524;13.340;2022-08-19T08:36:10;26.80;;;24.27;;
50066;SDS011;35952;52.524;13.340;2022-08-19T08:38:36;28.47;;;25.97;;
50066;SDS011;35952;52.524;13.340;2022-08-19T08:41:08;29.17;;;26.60;;
50066;SDS011;35952;52.524;13.340;2022-08-19T08:43:40;26.10;;;24.00;;
50066;SDS011;35952;52.524;13.340;2022-08-19T08:46:10;27.60;;;25.30;;
50066;SDS011;35952;52.524;13.340;2022-08-19T08:48:48;28.43;;;25.73;;
50066;SDS011;35952;52.524;13.340;2022-08-19T08:51:37;26.63;;;24.33;;
50066;SDS011;35952;52.524;13.340;2022-08-19T08:54:06;28.80;;;26.10;;
50066;SDS011;35952;52.524;13.340;2022-08-19T08:56:34;26.93;;;24.43;;
50066;SDS011;35952;52.524;13.340;2022-08-19T09:01:59;26.80;;;24.10;;
50066;SDS011;35952;52.524;13.340;2022-08-19T09:04:25;25.57;;;23.37;;
50066;SDS011;35952;52.524;13.340;2022-08-19T09:09:38;28.10;;;25.70;;
50066;SDS011;35952;52.524;13.340;2022-08-19T09:14:55;25.80;;;23.47;;
50066;SDS011;35952;52.524;13.340;2022-08-19T09:17:25;28.20;;;25.70;;
50066;SDS011;35952;52.524;13.340;2022-08-19T09:20:06;26.77;;;24.47;;
50066;SDS011;35952;52.524;13.340;2022-08-19T09:22:36;25.37;;;22.97;;
50066;SDS011;35952;52.524;13.340;2022-08-19T09:25:03;25.83;;;23.60;;
50066;SDS011;35952;52.524;13.340;2022-08-19T09:27:30;26.07;;;23.80;;
50066;SDS011;35952;52.524;13.340;2022-08-19T09:29:57;26.40;;;23.90;;
50066;SDS011;35952;52.524;13.340;2022-08-19T09:32:22;25.77;;;23.47;;
50066;SDS011;35952;52.524;13.340;2022-08-19T09:34:50;24.97;;;22.70;;
50066;SDS011;35952;52.524;13.340;2022-08-19T09:37:19;25.37;;;23.17;;
50066;SDS011;35952;52.524;13.340;2022-08-19T09:39:45;25.30;;;23.10;;
50066;SDS011;35952;52.524;13.340;2022-08-19T09:42:10;23.97;;;21.87;;
50066;SDS011;35952;52.524;13.340;2022-08-19T09:44:38;23.63;;;21.63;;
50066;SDS011;35952;52.524;13.340;2022-08-19T09:47:05;24.33;;;22.00;;
50066;SDS011;35952;52.524;13.340;2022-08-19T09:49:30;23.83;;;21.87;;
50066;SDS011;35952;52.524;13.340;2022-08-19T09:51:56;23.80;;;21.90;;
50066;SDS011;35952;52.524;13.340;2022-08-19T09:54:22;24.13;;;22.13;;
50066;SDS011;35952;52.524;13.340;2022-08-19T09:56:48;23.93;;;21.93;;
50066;SDS011;35952;52.524;13.340;2022-08-19T09:59:14;24.47;;;22.17;;
50066;SDS011;35952;52.524;13.340;2022-08-19T10:01:40;24.37;;;21.93;;
50066;SDS011;35952;52.524;13.340;2022-08-19T10:04:05;26.77;;;23.77;;
50066;SDS011;35952;52.524;13.340;2022-08-19T10:06:33;24.17;;;22.10;;
50066;SDS011;35952;52.524;13.340;2022-08-19T10:09:01;24.40;;;22.20;;
50066;SDS011;35952;52.524;13.340;2022-08-19T10:11:30;25.20;;;22.60;;
50066;SDS011;35952;52.524;13.340;2022-08-19T10:13:55;23.87;;;21.87;;
50066;SDS011;35952;52.524;13.340;2022-08-19T10:16:22;24.87;;;22.67;;
50066;SDS011;35952;52.524;13.340;2022-08-19T10:18:49;24.33;;;21.87;;
50066;SDS011;35952;52.524;13.340;2022-08-19T10:21:20;23.57;;;21.50;;
50066;SDS011;35952;52.524;13.340;2022-08-19T10:23:51;23.73;;;21.73;;
50066;SDS011;35952;52.524;13.340;2022-08-19T10:26:19;22.43;;;20.63;;
50066;SDS011;35952;52.524;13.340;2022-08-19T10:28:47;23.10;;;21.00;;
50066;SDS011;35952;52.524;13.340;2022-08-19T10:31:17;24.33;;;22.10;;
50066;SDS011;35952;52.524;13.340;2022-08-19T10:33:45;22.90;;;20.90;;
50066;SDS011;35952;52.524;13.340;2022-08-19T10:36:13;23.40;;;21.30;;
50066;SDS011;35952;52.524;13.340;2022-08-19T10:38:41;25.67;;;23.33;;
50066;SDS011;35952;52.524;13.340;2022-08-19T10:41:11;23.77;;;21.67;;
50066;SDS011;35952;52.524;13.340;2022-08-19T10:43:38;23.83;;;21.73;;
50066;SDS011;35952;52.524;13.340;2022-08-19T10:46:05;25.23;;;22.60;;
50066;SDS011;35952;52.524;13.340;2022-08-19T10:48:32;25.20;;;22.97;;
50066;SDS011;35952;52.524;13.340;2022-08-19T10:50:58;23.63;;;21.53;;
50066;SDS011;35952;52.524;13.340;2022-08-19T10:53:42;25.97;;;23.47;;
50066;SDS011;35952;52.524;13.340;2022-08-19T10:56:08;24.43;;;22.30;;
50066;SDS011;35952;52.524;13.340;2022-08-19T10:58:52;23.73;;;21.43;;
50066;SDS011;35952;52.524;13.340;2022-08-19T11:01:17;24.30;;;22.30;;
50066;SDS011;35952;52.524;13.340;2022-08-19T11:03:43;23.83;;;21.70;;
50066;SDS011;35952;52.524;13.340;2022-08-19T11:06:10;24.63;;;22.23;;
50066;SDS011;35952;52.524;13.340;2022-08-19T11:08:36;24.00;;;21.60;;
50066;SDS011;35952;52.524;13.340;2022-08-19T11:11:03;26.47;;;24.00;;
50066;SDS011;35952;52.524;13.340;2022-08-19T11:13:31;23.40;;;21.40;;
50066;SDS011;35952;52.524;13.340;2022-08-19T11:15:59;24.60;;;22.10;;
50066;SDS011;35952;52.524;13.340;2022-08-19T11:18:27;23.13;;;21.13;;
50066;SDS011;35952;52.524;13.340;2022-08-19T11:20:52;22.53;;;20.47;;
50066;SDS011;35952;52.524;13.340;2022-08-19T11:23:18;20.77;;;19.00;;
50066;SDS011;35952;52.524;13.340;2022-08-19T11:25:43;21.93;;;19.80;;
50066;SDS011;35952;52.524;13.340;2022-08-19T11:28:10;22.23;;;20.37;;
50066;SDS011;35952;52.524;13.340;2022-08-19T11:30:37;21.17;;;19.37;;
50066;SDS011;35952;52.524;13.340;2022-08-19T11:33:03;22.13;;;20.13;;
50066;SDS011;35952;52.524;13.340;2022-08-19T11:35:28;21.50;;;19.80;;
50066;SDS011;35952;52.524;13.340;2022-08-19T11:37:54;20.10;;;18.40;;
50066;SDS011;35952;52.524;13.340;2022-08-19T11:40:21;19.97;;;18.20;;
50066;SDS011;35952;52.524;13.340;2022-08-19T11:42:46;20.27;;;18.43;;
50066;SDS011;35952;52.524;13.340;2022-08-19T11:45:22;23.07;;;20.93;;
50066;SDS011;35952;52.524;13.340;2022-08-19T11:47:49;22.20;;;20.10;;
50066;SDS011;35952;52.524;13.340;2022-08-19T11:50:15;19.90;;;18.10;;
50066;SDS011;35952;52.524;13.340;2022-08-19T11:52:41;21.63;;;19.83;;
50066;SDS011;35952;52.524;13.340;2022-08-19T11:55:08;21.93;;;19.93;;
50066;SDS011;35952;52.524;13.340;2022-08-19T11:57:34;19.93;;;18.33;;
50066;SDS011;35952;52.524;13.340;2022-08-19T12:00:00;19.33;;;17.60;;
50066;SDS011;35952;52.524;13.340;2022-08-19T12:02:26;19.20;;;17.50;;
50066;SDS011;35952;52.524;13.340;2022-08-19T12:04:51;18.00;;;16.50;;
50066;SDS011;35952;52.524;13.340;2022-08-19T12:07:17;17.80;;;16.30;;
50066;SDS011;35952;52.524;13.340;2022-08-19T12:09:42;18.00;;;16.50;;
50066;SDS011;35952;52.524;13.340;2022-08-19T12:12:08;17.50;;;16.00;;
50066;SDS011;35952;52.524;13.340;2022-08-19T12:14:34;21.37;;;15.30;;
50066;SDS011;35952;52.524;13.340;2022-08-19T12:17:00;19.50;;;17.83;;
50066;SDS011;35952;52.524;13.340;2022-08-19T12:19:26;19.90;;;18.10;;
50066;SDS011;35952;52.524;13.340;2022-08-19T12:21:53;18.67;;;16.97;;
50066;SDS011;35952;52.524;13.340;2022-08-19T12:24:26;19.87;;;17.97;;
50066;SDS011;35952;52.524;13.340;2022-08-19T12:26:51;19.30;;;17.30;;
50066;SDS011;35952;52.524;13.340;2022-08-19T12:29:21;17.57;;;16.03;;
50066;SDS011;35952;52.524;13.340;2022-08-19T12:31:54;18.20;;;16.60;;
50066;SDS011;35952;52.524;13.340;2022-08-19T12:34:25;17.73;;;16.13;;
50066;SDS011;35952;52.524;13.340;2022-08-19T12:36:54;18.60;;;16.90;;
50066;SDS011;35952;52.524;13.340;2022-08-19T12:39:25;17.20;;;15.67;;
50066;SDS011;35952;52.524;13.340;2022-08-19T12:41:51;16.67;;;15.27;;
50066;SDS011;35952;52.524;13.340;2022-08-19T12:44:17;15.47;;;14.17;;
50066;SDS011;35952;52.524;13.340;2022-08-19T12:46:43;15.30;;;14.00;;
50066;SDS011;35952;52.524;13.340;2022-08-19T12:49:08;16.10;;;14.70;;
50066;SDS011;35952;52.524;13.340;2022-08-19T12:51:34;15.67;;;14.37;;
50066;SDS011;35952;52.524;13.340;2022-08-19T12:54:00;16.73;;;15.17;;
50066;SDS011;35952;52.524;13.340;2022-08-19T12:56:26;14.63;;;13.53;;
50066;SDS011;35952;52.524;13.340;2022-08-19T12:58:52;16.40;;;15.00;;
50066;SDS011;35952;52.524;13.340;2022-08-19T13:01:18;17.23;;;15.63;;
50066;SDS011;35952;52.524;13.340;2022-08-19T13:03:44;17.00;;;15.60;;
50066;SDS011;35952;52.524;13.340;2022-08-19T13:06:10;17.67;;;16.07;;
50066;SDS011;35952;52.524;13.340;2022-08-19T13:08:36;16.23;;;14.90;;
50066;SDS011;35952;52.524;13.340;2022-08-19T13:11:07;15.70;;;14.33;;
50066;SDS011;35952;52.524;13.340;2022-08-19T13:13:38;17.30;;;15.90;;
50066;SDS011;35952;52.524;13.340;2022-08-19T13:16:06;17.20;;;15.80;;
50066;SDS011;35952;52.524;13.340;2022-08-19T13:18:32;17.43;;;16.13;;
50066;SDS011;35952;52.524;13.340;2022-08-19T13:21:01;18.53;;;16.93;;
50066;SDS011;35952;52.524;13.340;2022-08-19T13:23:31;18.40;;;16.80;;
50066;SDS011;35952;52.524;13.340;2022-08-19T13:26:00;17.60;;;16.07;;
50066;SDS011;35952;52.524;13.340;2022-08-19T13:28:29;19.47;;;17.67;;
50066;SDS011;35952;52.524;13.340;2022-08-19T13:31:16;19.00;;;17.50;;
50066;SDS011;35952;52.524;13.340;2022-08-19T13:34:02;18.53;;;16.93;;
50066;SDS011;35952;52.524;13.340;2022-08-19T13:36:28;18.57;;;17.07;;
50066;SDS011;35952;52.524;13.340;2022-08-19T13:38:54;17.73;;;16.23;;
50066;SDS011;35952;52.524;13.340;2022-08-19T13:41:19;18.90;;;17.20;;
50066;SDS011;35952;52.524;13.340;2022-08-19T13:43:45;19.00;;;17.40;;
50066;SDS011;35952;52.524;13.340;2022-08-19T13:46:11;20.17;;;18.47;;
50066;SDS011;35952;52.524;13.340;2022-08-19T13:48:40;19.10;;;17.60;;
50066;SDS011;35952;52.524;13.340;2022-08-19T13:51:06;18.40;;;16.90;;
50066;SDS011;35952;52.524;13.340;2022-08-19T13:53:34;19.20;;;17.70;;
50066;SDS011;35952;52.524;13.340;2022-08-19T13:56:04;20.00;;;18.10;;
50066;SDS011;35952;52.524;13.340;2022-08-19T13:58:31;18.47;;;17.00;;
50066;SDS011;35952;52.524;13.340;2022-08-19T14:00:56;19.60;;;17.90;;
50066;SDS011;35952;52.524;13.340;2022-08-19T14:03:23;19.23;;;17.23;;
50066;SDS011;35952;52.524;13.340;2022-08-19T14:05:49;18.50;;;16.90;;
50066;SDS011;35952;52.524;13.340;2022-08-19T14:08:15;19.10;;;17.20;;
50066;SDS011;35952;52.524;13.340;2022-08-19T14:10:41;19.20;;;17.50;;
50066;SDS011;35952;52.524;13.340;2022-08-19T14:13:09;19.07;;;17.57;;
50066;SDS011;35952;52.524;13.340;2022-08-19T14:15:34;19.00;;;17.30;;
50066;SDS011;35952;52.524;13.340;2022-08-19T14:18:02;20.47;;;18.57;;
50066;SDS011;35952;52.524;13.340;2022-08-19T14:20:27;18.77;;;17.07;;